Time;durP1;ratioP1;P1;durP2;ratioP2;P2;SDS_P1;SDS_P2;PMS_P1;PMS_P2;Temp;Humidity;BMP_temperature;BMP_pressure;BME280_temperature;BME280_humidity;BME280_pressure;Samples;Min_cycle;Max_cycle;Signal;HPM_P1;HPM_P2
2024/02/11 00:00:23;;;;;;;11.45;2.50;;;;;;;;;;4984638;28;20029;-82
2024/02/11 00:02:51;;;;;;;10.65;2.92;;;;;;;;;;4982553;28;20655;-82
2024/02/11 00:05:18;;;;;;;9.73;2.60;;;;;;;;;;4983481;28;20038;-80
2024/02/11 00:07:44;;;;;;;11.65;4.47;;;;;;;;;;4986939;28;20029;-81
2024/02/11 00:10:11;;;;;;;9.27;2.85;;;;;;;;;;4989039;28;20685;-80
2024/02/11 00:12:38;;;;;;;9.00;2.65;;;;;;;;;;4989687;28;20113;-79
2024/02/11 00:15:05;;;;;;;10.85;2.78;;;;;;;;;;4985713;28;20842;-81
2024/02/11 00:17:35;;;;;;;10.52;2.63;;;;;;;;;;4976164;28;20048;-79
2024/02/11 00:20:02;;;;;;;9.10;3.35;;;;;;;;;;4989474;28;20037;-81
2024/02/11 00:22:29;;;;;;;9.55;2.67;;;;;;;;;;4988705;28;20034;-78
2024/02/11 00:24:56;;;;;;;10.93;2.50;;;;;;;;;;4988655;28;20492;-79
2024/02/11 00:27:24;;;;;;;8.85;2.65;;;;;;;;;;4976049;28;20034;-79
2024/02/11 00:29:51;;;;;;;11.02;2.60;;;;;;;;;;4987727;28;20116;-80
2024/02/11 00:32:20;;;;;;;9.35;2.90;;;;;;;;;;4996656;28;20080;-79
2024/02/11 00:34:47;;;;;;;9.60;2.53;;;;;;;;;;4987367;28;20042;-81
2024/02/11 00:37:14;;;;;;;8.05;3.10;;;;;;;;;;4993858;28;20031;-80
2024/02/11 00:39:43;;;;;;;9.18;3.92;;;;;;;;;;4999226;28;20076;-79
2024/02/11 00:42:10;;;;;;;8.93;2.67;;;;;;;;;;4989467;28;20059;-80
2024/02/11 00:44:37;;;;;;;8.15;2.78;;;;;;;;;;5005738;28;20474;-80
2024/02/11 00:47:06;;;;;;;8.18;2.10;;;;;;;;;;5011087;28;20044;-80
2024/02/11 00:49:34;;;;;;;7.72;2.00;;;;;;;;;;5014437;28;20035;-80
2024/02/11 00:52:00;;;;;;;8.52;2.70;;;;;;;;;;5009898;28;20040;-80
2024/02/11 00:54:26;;;;;;;8.40;2.20;;;;;;;;;;4998947;28;20512;-81
2024/02/11 00:56:54;;;;;;;8.93;2.58;;;;;;;;;;4994875;28;20177;-80
2024/02/11 00:59:22;;;;;;;9.05;2.42;;;;;;;;;;5013676;28;21049;-81
2024/02/11 01:01:48;;;;;;;8.95;2.35;;;;;;;;;;4980115;28;20101;-81
2024/02/11 01:04:17;;;;;;;9.13;2.22;;;;;;;;;;5015170;28;20068;-80
2024/02/11 01:06:44;;;;;;;9.38;2.30;;;;;;;;;;5011633;28;20029;-80
2024/02/11 01:09:13;;;;;;;9.02;2.30;;;;;;;;;;5016563;28;20352;-80
2024/02/11 01:11:40;;;;;;;8.35;2.08;;;;;;;;;;4995685;28;20025;-80
2024/02/11 01:14:08;;;;;;;11.27;2.10;;;;;;;;;;5018413;28;20438;-82
2024/02/11 01:16:36;;;;;;;11.07;2.10;;;;;;;;;;4996688;28;20607;-79
2024/02/11 01:19:04;;;;;;;7.93;2.10;;;;;;;;;;5012089;28;20099;-80
2024/02/11 01:21:32;;;;;;;8.43;2.30;;;;;;;;;;5017350;28;20472;-80
2024/02/11 01:23:58;;;;;;;7.60;1.95;;;;;;;;;;4991340;28;20783;-81
2024/02/11 01:26:25;;;;;;;7.53;2.20;;;;;;;;;;4993283;28;20040;-82
2024/02/11 01:28:51;;;;;;;8.13;2.30;;;;;;;;;;5011991;28;20033;-81
2024/02/11 01:31:17;;;;;;;9.25;2.42;;;;;;;;;;5017143;28;20457;-81
2024/02/11 01:33:44;;;;;;;9.30;2.28;;;;;;;;;;5014625;28;20025;-80
2024/02/11 01:36:13;;;;;;;8.98;2.33;;;;;;;;;;4997744;28;20160;-79
2024/02/11 01:38:40;;;;;;;9.27;2.63;;;;;;;;;;5009851;28;20113;-81
2024/02/11 01:41:06;;;;;;;10.50;2.45;;;;;;;;;;5014153;28;20037;-80
2024/02/11 01:43:34;;;;;;;8.75;2.70;;;;;;;;;;4997401;28;20665;-80
2024/02/11 01:46:04;;;;;;;9.55;2.40;;;;;;;;;;4995945;28;20034;-80
2024/02/11 01:48:30;;;;;;;9.68;2.47;;;;;;;;;;5012019;28;20013;-78
2024/02/11 01:51:01;;;;;;;9.50;2.60;;;;;;;;;;5010647;28;20037;-80
2024/02/11 01:53:29;;;;;;;8.80;2.88;;;;;;;;;;5012152;28;20032;-80
2024/02/11 01:55:57;;;;;;;9.68;2.85;;;;;;;;;;4996044;28;20037;-80
2024/02/11 01:58:24;;;;;;;8.02;2.63;;;;;;;;;;4981573;28;20529;-80
2024/02/11 02:00:52;;;;;;;9.93;2.97;;;;;;;;;;5013377;28;20482;-80
2024/02/11 02:03:23;;;;;;;15.98;2.70;;;;;;;;;;5017151;28;20021;-83
2024/02/11 02:05:49;;;;;;;10.57;2.92;;;;;;;;;;5025427;28;20057;-80
2024/02/11 02:08:17;;;;;;;9.60;2.70;;;;;;;;;;5031993;28;20013;-81
2024/02/11 02:10:45;;;;;;;9.20;2.47;;;;;;;;;;5019336;28;20047;-81
2024/02/11 02:13:12;;;;;;;11.80;2.88;;;;;;;;;;5007921;28;20033;-80
2024/02/11 02:15:38;;;;;;;11.98;3.72;;;;;;;;;;5014073;28;20030;-81
2024/02/11 02:18:04;;;;;;;10.23;3.15;;;;;;;;;;5003017;28;20508;-81
2024/02/11 02:20:30;;;;;;;11.68;3.15;;;;;;;;;;4998239;28;20052;-79
2024/02/11 02:22:58;;;;;;;10.48;2.90;;;;;;;;;;4997770;28;20045;-82
2024/02/11 02:25:26;;;;;;;8.93;2.97;;;;;;;;;;5012605;28;20353;-82
2024/02/11 02:27:52;;;;;;;10.75;3.30;;;;;;;;;;5014622;28;20033;-82
2024/02/11 02:30:19;;;;;;;8.27;2.75;;;;;;;;;;5017222;28;20055;-80
2024/02/11 02:32:45;;;;;;;8.48;2.92;;;;;;;;;;5016653;28;20032;-80
2024/02/11 02:35:11;;;;;;;9.77;2.70;;;;;;;;;;5012449;28;20561;-81
2024/02/11 02:37:39;;;;;;;10.23;3.30;;;;;;;;;;4996105;28;20064;-80
2024/02/11 02:40:06;;;;;;;10.57;2.95;;;;;;;;;;4994560;28;20126;-80
2024/02/11 02:42:32;;;;;;;10.85;3.08;;;;;;;;;;5021377;28;20028;-81
2024/02/11 02:44:59;;;;;;;8.68;2.80;;;;;;;;;;5013758;28;20048;-81
2024/02/11 02:47:28;;;;;;;10.10;3.33;;;;;;;;;;4992401;28;20178;-82
2024/02/11 02:49:55;;;;;;;11.98;3.25;;;;;;;;;;4992632;28;20033;-80
2024/02/11 02:52:22;;;;;;;11.82;2.83;;;;;;;;;;4993790;28;20246;-81
2024/02/11 02:54:50;;;;;;;11.90;3.08;;;;;;;;;;5016626;28;20100;-80
2024/02/11 02:57:16;;;;;;;9.52;3.22;;;;;;;;;;4999220;28;20037;-80
2024/02/11 02:59:42;;;;;;;10.73;3.13;;;;;;;;;;4994270;28;20033;-80
2024/02/11 03:02:08;;;;;;;;;;;;;;;;;;5016463;28;20765;-81
2024/02/11 03:04:37;;;;;;;10.45;3.00;;;;;;;;;;5016452;28;19927;-80
2024/02/11 03:07:06;;;;;;;11.10;3.10;;;;;;;;;;5016811;28;20033;-80
2024/02/11 03:09:34;;;;;;;9.65;2.70;;;;;;;;;;5018565;28;20033;-81
2024/02/11 03:12:02;;;;;;;10.48;3.08;;;;;;;;;;4977442;28;20025;-81
2024/02/11 03:14:31;;;;;;;9.90;2.97;;;;;;;;;;5013004;28;20037;-81
2024/02/11 03:16:58;;;;;;;11.32;3.03;;;;;;;;;;5011124;28;20121;-81
2024/02/11 03:19:26;;;;;;;10.02;2.90;;;;;;;;;;4984066;28;20791;-83
2024/02/11 03:21:52;;;;;;;9.60;2.53;;;;;;;;;;4995516;28;20069;-81
2024/02/11 03:24:20;;;;;;;8.23;2.60;;;;;;;;;;5012608;28;20164;-80
2024/02/11 03:26:56;;;;;;;8.65;2.90;;;;;;;;;;5013536;28;20171;-82
2024/02/11 03:29:23;;;;;;;9.70;2.80;;;;;;;;;;5016679;28;20087;-81
2024/02/11 03:31:50;;;;;;;9.43;3.00;;;;;;;;;;4994314;28;20017;-81
2024/02/11 03:34:19;;;;;;;9.98;2.65;;;;;;;;;;4995980;28;20037;-81
2024/02/11 03:36:46;;;;;;;9.02;2.75;;;;;;;;;;5012875;28;20095;-80
2024/02/11 03:39:12;;;;;;;8.10;2.83;;;;;;;;;;4992196;28;20038;-82
2024/02/11 03:41:38;;;;;;;;;;;;;;;;;;4991040;28;20030;-82
2024/02/11 03:44:05;;;;;;;9.50;3.10;;;;;;;;;;4994554;28;20111;-80
2024/02/11 03:46:33;;;;;;;9.05;2.80;;;;;;;;;;4996168;28;20799;-81
2024/02/11 03:49:02;;;;;;;15.82;3.08;;;;;;;;;;4976542;28;20033;-81
2024/02/11 03:51:30;;;;;;;8.18;2.50;;;;;;;;;;4998701;28;20103;-83
2024/02/11 03:54:01;;;;;;;10.25;3.00;;;;;;;;;;4993322;28;20953;-83
2024/02/11 03:56:28;;;;;;;9.10;2.47;;;;;;;;;;4992313;28;20138;-82
2024/02/11 03:58:56;;;;;;;9.77;2.83;;;;;;;;;;4975500;28;20042;-83
2024/02/11 04:01:22;;;;;;;8.80;2.78;;;;;;;;;;4992487;28;20046;-82
2024/02/11 04:03:48;;;;;;;10.55;2.80;;;;;;;;;;4992695;28;20440;-82
2024/02/11 04:06:20;;;;;;;7.80;2.60;;;;;;;;;;4993416;28;20030;-80
2024/02/11 04:08:49;;;;;;;7.97;2.47;;;;;;;;;;4994439;28;20022;-83
2024/02/11 04:11:17;;;;;;;10.80;2.85;;;;;;;;;;4994767;28;20034;-82
2024/02/11 04:13:44;;;;;;;9.27;2.70;;;;;;;;;;4994722;28;20652;-82
2024/02/11 04:16:15;;;;;;;9.82;2.28;;;;;;;;;;5000327;28;20090;-82
2024/02/11 04:18:41;;;;;;;9.73;2.70;;;;;;;;;;5001136;28;20045;-82
2024/02/11 04:21:10;;;;;;;7.70;2.60;;;;;;;;;;5003460;28;20565;-82
2024/02/11 04:23:38;;;;;;;7.25;2.53;;;;;;;;;;4997533;28;20030;-83
2024/02/11 04:26:10;;;;;;;9.15;2.53;;;;;;;;;;4999430;28;20029;-82
2024/02/11 04:28:37;;;;;;;9.07;2.63;;;;;;;;;;4996437;28;20022;-82
2024/02/11 04:31:09;;;;;;;11.15;2.50;;;;;;;;;;4999939;28;20040;-82
2024/02/11 04:46:44;;;;;;;7.55;2.33;;;;;;;;;;5091211;27;20458;-68
2024/02/11 04:49:12;;;;;;;8.35;2.55;;;;;;;;;;5060161;28;20043;-68
2024/02/11 04:51:39;;;;;;;8.27;2.47;;;;;;;;;;5056087;28;20036;-68
2024/02/11 04:54:05;;;;;;;6.70;2.28;;;;;;;;;;5072502;28;20624;-67
2024/02/11 04:56:31;;;;;;;;;;;;;;;;;;5053390;28;20059;-68
2024/02/11 04:59:03;;;;;;;8.43;2.42;;;;;;;;;;5073688;28;19911;-68
2024/02/11 05:01:31;;;;;;;8.27;2.30;;;;;;;;;;5056893;28;20020;-67
2024/02/11 05:03:59;;;;;;;9.48;2.78;;;;;;;;;;5072589;28;20039;-68
2024/02/11 05:06:25;;;;;;;12.40;2.97;;;;;;;;;;5053103;28;20089;-68
2024/02/11 05:08:55;;;;;;;7.15;2.20;;;;;;;;;;5072514;28;20089;-67
2024/02/11 05:11:21;;;;;;;9.77;2.40;;;;;;;;;;5054773;28;20027;-68
2024/02/11 05:13:47;;;;;;;7.22;2.10;;;;;;;;;;5075548;28;20051;-68
2024/02/11 05:16:15;;;;;;;8.18;2.30;;;;;;;;;;5075274;28;20490;-67
2024/02/11 05:18:44;;;;;;;9.48;2.17;;;;;;;;;;5069769;28;20032;-68
2024/02/11 05:21:10;;;;;;;7.03;2.22;;;;;;;;;;5071024;28;20039;-67
2024/02/11 05:23:37;;;;;;;8.38;2.47;;;;;;;;;;5065862;28;20029;-67
2024/02/11 05:26:05;;;;;;;8.85;2.40;;;;;;;;;;5073159;28;20643;-67
2024/02/11 05:28:34;;;;;;;8.48;2.50;;;;;;;;;;5056908;28;20035;-67
2024/02/11 05:31:01;;;;;;;9.65;2.50;;;;;;;;;;5073365;28;20034;-68
2024/02/11 05:33:27;;;;;;;8.50;2.50;;;;;;;;;;5052798;28;20094;-68
2024/02/11 05:35:53;;;;;;;9.07;2.40;;;;;;;;;;5072690;28;20556;-68
2024/02/11 05:38:19;;;;;;;8.48;2.22;;;;;;;;;;5074267;28;20378;-67
2024/02/11 05:40:48;;;;;;;6.18;1.85;;;;;;;;;;5072679;28;20040;-67
2024/02/11 05:43:15;;;;;;;7.65;2.50;;;;;;;;;;5075005;28;20067;-67
2024/02/11 05:45:41;;;;;;;10.10;2.67;;;;;;;;;;5050457;28;20055;-66
2024/02/11 05:48:08;;;;;;;8.55;2.53;;;;;;;;;;5043656;28;20036;-67
2024/02/11 05:50:34;;;;;;;;;;;;;;;;;;5056326;28;20539;-66
2024/02/11 05:53:00;;;;;;;8.68;1.92;;;;;;;;;;5055842;28;19912;-67
2024/02/11 05:55:26;;;;;;;;;;;;;;;;;;5057810;28;20031;-66
2024/02/11 05:57:54;;;;;;;5.07;1.80;;;;;;;;;;5045736;28;19919;-66
2024/02/11 06:00:24;;;;;;;9.70;2.33;;;;;;;;;;5025832;28;20024;-67
2024/02/11 06:02:53;;;;;;;8.60;2.22;;;;;;;;;;5058864;28;20041;-67
2024/02/11 06:05:20;;;;;;;6.35;2.03;;;;;;;;;;5060596;28;20035;-68
2024/02/11 06:07:49;;;;;;;8.15;2.08;;;;;;;;;;5042158;28;20043;-66
2024/02/11 06:10:16;;;;;;;8.30;1.88;;;;;;;;;;5060292;28;20055;-68
2024/02/11 06:12:42;;;;;;;;;;;;;;;;;;5063911;28;20062;-66
2024/02/11 06:15:10;;;;;;;8.60;2.23;;;;;;;;;;5061085;28;19920;-66
2024/02/11 06:17:36;;;;;;;5.20;1.73;;;;;;;;;;5039614;28;20036;-67
2024/02/11 06:20:03;;;;;;;9.45;2.05;;;;;;;;;;5060427;28;20689;-67
2024/02/11 06:22:29;;;;;;;6.45;1.85;;;;;;;;;;5043642;28;20038;-68
2024/02/11 06:24:56;;;;;;;6.05;1.83;;;;;;;;;;5041833;28;20029;-68
2024/02/11 06:27:23;;;;;;;6.72;1.80;;;;;;;;;;5038816;28;20091;-67
2024/02/11 06:29:49;;;;;;;6.75;1.88;;;;;;;;;;5061647;28;20107;-68
2024/02/11 06:32:15;;;;;;;7.57;2.10;;;;;;;;;;5060204;28;20032;-67
2024/02/11 06:34:42;;;;;;;9.13;2.45;;;;;;;;;;5059079;28;20036;-67
2024/02/11 06:37:09;;;;;;;6.50;2.10;;;;;;;;;;5056407;28;20123;-68
2024/02/11 06:39:38;;;;;;;8.88;2.30;;;;;;;;;;5037538;28;20024;-68
2024/02/11 06:42:05;;;;;;;9.07;2.45;;;;;;;;;;5058536;28;20028;-68
2024/02/11 06:44:32;;;;;;;8.77;2.20;;;;;;;;;;5058693;28;20605;-68
2024/02/11 06:46:58;;;;;;;7.68;2.40;;;;;;;;;;5062256;28;20684;-68
2024/02/11 06:49:28;;;;;;;9.18;2.40;;;;;;;;;;5055644;28;20115;-67
2024/02/11 06:51:56;;;;;;;11.32;2.47;;;;;;;;;;5061919;28;20791;-68
2024/02/11 06:54:22;;;;;;;11.32;2.80;;;;;;;;;;5038095;28;20040;-67
2024/02/11 06:56:50;;;;;;;8.30;2.65;;;;;;;;;;5060736;28;20108;-68
2024/02/11 06:59:17;;;;;;;10.55;2.75;;;;;;;;;;5059012;28;20036;-68
2024/02/11 07:01:43;;;;;;;10.50;2.83;;;;;;;;;;5058378;28;20459;-66
2024/02/11 07:04:13;;;;;;;11.57;2.80;;;;;;;;;;5047519;28;20077;-66
2024/02/11 07:06:45;;;;;;;11.27;2.90;;;;;;;;;;5040610;28;20024;-66
2024/02/11 07:09:17;;;;;;;13.20;2.88;;;;;;;;;;5060101;28;20024;-67
2024/02/11 07:11:43;;;;;;;11.10;3.03;;;;;;;;;;5056082;28;20032;-66
2024/02/11 07:14:10;;;;;;;11.27;3.08;;;;;;;;;;5058738;28;20096;-67
2024/02/11 07:16:37;;;;;;;;;;;;;;;;;;5040079;28;20043;-67
2024/02/11 07:19:04;;;;;;;10.63;3.05;;;;;;;;;;5038029;28;19919;-67
2024/02/11 07:21:35;;;;;;;11.32;3.10;;;;;;;;;;5059950;28;20032;-68
2024/02/11 07:24:02;;;;;;;10.63;4.13;;;;;;;;;;5061244;28;20059;-68
2024/02/11 07:26:28;;;;;;;10.88;3.30;;;;;;;;;;5040468;28;20115;-68
2024/02/11 07:28:54;;;;;;;10.55;3.60;;;;;;;;;;5057562;28;20024;-66
2024/02/11 07:31:21;;;;;;;9.85;2.70;;;;;;;;;;5058648;28;20143;-66
2024/02/11 07:33:47;;;;;;;8.50;2.30;;;;;;;;;;5057696;28;20028;-67
2024/02/11 07:36:14;;;;;;;11.00;4.55;;;;;;;;;;5055443;28;20078;-67
2024/02/11 07:38:40;;;;;;;7.95;2.72;;;;;;;;;;5058191;28;20025;-69
2024/02/11 07:41:07;;;;;;;12.20;5.20;;;;;;;;;;5044889;28;20468;-68
2024/02/11 07:43:33;;;;;;;11.05;4.57;;;;;;;;;;5059774;28;20055;-66
2024/02/11 07:46:01;;;;;;;9.95;3.13;;;;;;;;;;5060327;28;20069;-67
2024/02/11 07:48:28;;;;;;;10.63;2.80;;;;;;;;;;5060306;28;20161;-67
2024/02/11 07:50:54;;;;;;;11.07;3.40;;;;;;;;;;5059194;28;20059;-67
2024/02/11 07:53:20;;;;;;;7.97;2.60;;;;;;;;;;5057289;28;20039;-66
2024/02/11 07:55:46;;;;;;;;;;;;;;;;;;5056871;28;20701;-67
2024/02/11 07:58:13;;;;;;;10.30;2.88;;;;;;;;;;5047962;28;19991;-66
2024/02/11 08:00:39;;;;;;;13.90;9.82;;;;;;;;;;5037753;28;20120;-67
2024/02/11 08:03:08;;;;;;;10.70;4.32;;;;;;;;;;5047483;28;20101;-66
2024/02/11 08:05:34;;;;;;;9.82;3.30;;;;;;;;;;5060544;28;20114;-68
2024/02/11 08:08:00;;;;;;;27.70;20.98;;;;;;;;;;5042670;28;20028;-67
2024/02/11 08:10:26;;;;;;;23.73;14.90;;;;;;;;;;5040325;28;20024;-67
2024/02/11 08:12:52;;;;;;;12.85;4.97;;;;;;;;;;5055107;28;20044;-66
2024/02/11 08:15:19;;;;;;;11.88;4.65;;;;;;;;;;5059396;28;20036;-66
2024/02/11 08:17:45;;;;;;;10.45;3.58;;;;;;;;;;5058093;28;20994;-66
2024/02/11 08:20:21;;;;;;;11.82;2.72;;;;;;;;;;5061102;28;20028;-66
2024/02/11 08:22:47;;;;;;;10.88;2.75;;;;;;;;;;5061738;28;20034;-68
2024/02/11 08:25:14;;;;;;;9.30;2.63;;;;;;;;;;5058761;28;20533;-68
2024/02/11 08:27:41;;;;;;;7.88;2.28;;;;;;;;;;5053771;28;20131;-68
2024/02/11 08:30:12;;;;;;;9.60;2.63;;;;;;;;;;5060060;28;20035;-67
2024/02/11 08:32:38;;;;;;;7.75;2.60;;;;;;;;;;5056715;28;20110;-66
2024/02/11 08:35:05;;;;;;;8.07;2.40;;;;;;;;;;5055865;28;20039;-68
2024/02/11 08:37:32;;;;;;;7.70;2.58;;;;;;;;;;5050647;28;20434;-68
2024/02/11 08:39:58;;;;;;;9.57;2.95;;;;;;;;;;5059203;28;20020;-68
2024/02/11 08:42:27;;;;;;;8.77;2.38;;;;;;;;;;5054117;28;20082;-69
2024/02/11 08:44:56;;;;;;;13.45;4.95;;;;;;;;;;5056347;28;20044;-71
2024/02/11 08:47:24;;;;;;;8.20;2.38;;;;;;;;;;5042539;28;20657;-68
2024/02/11 08:49:50;;;;;;;6.78;1.90;;;;;;;;;;5055539;28;20782;-68
2024/02/11 08:52:16;;;;;;;;;;;;;;;;;;5056930;28;20102;-67
2024/02/11 08:54:43;;;;;;;8.60;2.45;;;;;;;;;;5052956;28;19928;-68
2024/02/11 08:57:15;;;;;;;;;;;;;;;;;;5055651;28;20122;-68
2024/02/11 08:59:41;;;;;;;9.98;1.92;;;;;;;;;;5053808;28;22861;-68
2024/02/11 09:02:09;;;;;;;;;;;;;;;;;;5055723;28;20036;-68
2024/02/11 09:04:35;;;;;;;7.65;1.83;;;;;;;;;;5034145;28;19948;-66
2024/02/11 09:07:01;;;;;;;7.90;2.08;;;;;;;;;;5039761;28;20036;-67
2024/02/11 09:09:27;;;;;;;9.50;2.33;;;;;;;;;;5057995;28;20628;-69
2024/02/11 09:11:59;;;;;;;7.32;2.03;;;;;;;;;;5056839;28;20463;-67
2024/02/11 09:14:26;;;;;;;8.48;2.00;;;;;;;;;;5055174;28;20077;-68
2024/02/11 09:16:53;;;;;;;7.75;2.28;;;;;;;;;;5056798;28;20563;-68
2024/02/11 09:19:20;;;;;;;8.60;2.47;;;;;;;;;;5057333;28;20040;-68
2024/02/11 09:21:46;;;;;;;8.13;2.30;;;;;;;;;;5059149;28;20139;-67
2024/02/11 09:24:12;;;;;;;10.25;2.78;;;;;;;;;;5045467;28;20034;-67
2024/02/11 09:26:38;;;;;;;7.68;1.98;;;;;;;;;;5055701;28;20028;-67
2024/02/11 09:29:07;;;;;;;;;;;;;;;;;;5043627;28;20469;-69
2024/02/11 09:31:34;;;;;;;7.50;1.85;;;;;;;;;;5059897;28;19917;-68
2024/02/11 09:34:00;;;;;;;8.85;1.90;;;;;;;;;;5062920;28;20498;-68
2024/02/11 09:36:26;;;;;;;;;;;;;;;;;;5057741;28;20032;-68
2024/02/11 09:38:52;;;;;;;9.77;2.10;;;;;;;;;;5063551;28;19989;-68
2024/02/11 09:41:18;;;;;;;;;;;;;;;;;;5048294;28;20163;-68
2024/02/11 09:43:47;;;;;;;8.98;2.33;;;;;;;;;;5057304;28;19912;-67
2024/02/11 09:46:17;;;;;;;8.52;1.63;;;;;;;;;;5065215;28;20059;-67
2024/02/11 09:48:49;;;;;;;8.38;2.05;;;;;;;;;;5058363;28;20040;-68
2024/02/11 09:51:16;;;;;;;6.70;1.83;;;;;;;;;;5049293;28;20089;-67
2024/02/11 09:53:44;;;;;;;6.38;1.80;;;;;;;;;;5043613;28;20037;-67
2024/02/11 09:56:10;;;;;;;6.53;1.60;;;;;;;;;;5041849;28;20543;-67
2024/02/11 09:58:37;;;;;;;7.13;1.75;;;;;;;;;;5057001;28;20508;-67
2024/02/11 10:01:03;;;;;;;7.88;1.75;;;;;;;;;;5052956;28;20020;-67
2024/02/11 10:03:30;;;;;;;7.85;1.55;;;;;;;;;;5037876;28;20506;-67
2024/02/11 10:05:58;;;;;;;7.65;1.90;;;;;;;;;;5038426;28;20024;-67
2024/02/11 10:08:24;;;;;;;7.45;1.95;;;;;;;;;;5037269;28;20033;-67
2024/02/11 10:10:51;;;;;;;7.63;1.70;;;;;;;;;;5039737;28;20035;-67
2024/02/11 10:13:20;;;;;;;5.88;1.70;;;;;;;;;;5055747;28;20032;-67
2024/02/11 10:15:49;;;;;;;9.80;3.30;;;;;;;;;;5039840;28;20029;-67
2024/02/11 10:18:19;;;;;;;7.88;2.40;;;;;;;;;;5057575;28;20510;-67
2024/02/11 10:20:48;;;;;;;7.93;2.10;;;;;;;;;;5057307;28;20030;-67
2024/02/11 10:23:15;;;;;;;6.25;1.45;;;;;;;;;;5059563;28;20124;-67
2024/02/11 10:25:47;;;;;;;6.38;1.77;;;;;;;;;;5057277;28;20028;-67
2024/02/11 10:28:14;;;;;;;7.05;2.10;;;;;;;;;;5040691;28;20032;-69
2024/02/11 10:30:41;;;;;;;7.00;1.70;;;;;;;;;;5040781;28;20023;-69
2024/02/11 10:33:07;;;;;;;6.97;1.80;;;;;;;;;;5057502;28;20696;-69
2024/02/11 10:35:33;;;;;;;9.13;3.00;;;;;;;;;;5054889;28;20063;-67
2024/02/11 10:38:00;;;;;;;7.32;1.98;;;;;;;;;;5040441;28;20487;-68
2024/02/11 10:40:26;;;;;;;9.15;2.33;;;;;;;;;;5043630;28;20578;-68
2024/02/11 10:42:54;;;;;;;8.02;2.22;;;;;;;;;;5039715;28;20062;-69
2024/02/11 10:45:20;;;;;;;10.98;2.08;;;;;;;;;;5054268;28;20047;-66
2024/02/11 10:47:47;;;;;;;8.98;2.67;;;;;;;;;;5059102;28;20103;-69
2024/02/11 10:50:13;;;;;;;10.15;2.90;;;;;;;;;;5057993;28;20028;-69
2024/02/11 10:52:43;;;;;;;8.23;2.22;;;;;;;;;;5039806;28;20074;-66
2024/02/11 10:55:13;;;;;;;6.85;2.03;;;;;;;;;;5058134;28;20547;-66
2024/02/11 10:57:54;;;;;;;9.25;2.60;;;;;;;;;;5054747;28;20203;-67
2024/02/11 11:00:26;;;;;;;10.18;2.42;;;;;;;;;;5042823;28;20024;-66
2024/02/11 11:02:54;;;;;;;8.07;2.20;;;;;;;;;;5061780;28;20020;-68
2024/02/11 11:05:21;;;;;;;8.15;2.00;;;;;;;;;;5059250;28;20036;-67
2024/02/11 11:07:48;;;;;;;7.70;1.58;;;;;;;;;;5060199;28;20585;-69
2024/02/11 11:10:15;;;;;;;8.00;2.20;;;;;;;;;;5060356;28;20032;-67
2024/02/11 11:12:48;;;;;;;7.85;2.00;;;;;;;;;;5056320;28;20063;-69
2024/02/11 11:15:14;;;;;;;8.10;2.05;;;;;;;;;;5061169;28;20043;-67
2024/02/11 11:17:41;;;;;;;10.07;2.08;;;;;;;;;;5058446;28;20028;-67
2024/02/11 11:20:15;;;;;;;7.78;2.30;;;;;;;;;;5044348;28;20067;-67
2024/02/11 11:22:41;;;;;;;9.18;2.50;;;;;;;;;;5056574;28;20893;-69
2024/02/11 11:25:11;;;;;;;9.90;4.22;;;;;;;;;;5061337;28;20020;-69
2024/02/11 11:27:37;;;;;;;8.27;2.30;;;;;;;;;;5045247;28;20038;-68
2024/02/11 11:30:06;;;;;;;7.60;2.05;;;;;;;;;;5042426;28;20059;-68
2024/02/11 11:32:33;;;;;;;9.80;3.28;;;;;;;;;;5041709;28;20028;-68
2024/02/11 11:35:00;;;;;;;12.35;4.32;;;;;;;;;;5045614;28;20047;-67
2024/02/11 11:37:26;;;;;;;8.13;2.67;;;;;;;;;;5056221;28;20020;-67
2024/02/11 11:39:54;;;;;;;8.18;2.95;;;;;;;;;;5044808;28;20028;-67
2024/02/11 11:42:21;;;;;;;10.00;3.50;;;;;;;;;;5042383;28;20578;-68
2024/02/11 11:44:47;;;;;;;7.70;2.00;;;;;;;;;;5057844;28;20075;-69
2024/02/11 11:47:14;;;;;;;10.80;2.50;;;;;;;;;;5063770;28;20108;-67
2024/02/11 11:49:43;;;;;;;8.68;3.00;;;;;;;;;;5058883;28;20077;-67
2024/02/11 11:52:10;;;;;;;7.53;1.75;;;;;;;;;;5042167;28;20605;-67
2024/02/11 11:54:37;;;;;;;11.32;3.30;;;;;;;;;;5059957;28;20032;-68
2024/02/11 11:57:05;;;;;;;8.15;2.10;;;;;;;;;;5062506;28;20428;-67
2024/02/11 11:59:32;;;;;;;8.05;2.13;;;;;;;;;;5059384;28;20024;-67
2024/02/11 12:01:58;;;;;;;10.68;3.42;;;;;;;;;;5045599;28;20449;-67
2024/02/11 12:04:26;;;;;;;9.68;3.72;;;;;;;;;;5041611;28;20589;-68
2024/02/11 12:06:52;;;;;;;11.00;4.10;;;;;;;;;;5040701;28;20016;-68
2024/02/11 12:09:18;;;;;;;9.05;2.53;;;;;;;;;;5057053;28;20033;-68
2024/02/11 12:11:48;;;;;;;8.63;2.33;;;;;;;;;;5060005;28;20123;-67
2024/02/11 12:14:14;;;;;;;10.05;2.85;;;;;;;;;;5060596;28;20031;-67
2024/02/11 12:16:44;;;;;;;9.63;2.38;;;;;;;;;;5057971;28;21057;-67
2024/02/11 12:19:12;;;;;;;9.52;3.15;;;;;;;;;;5047004;28;20046;-69
2024/02/11 12:21:38;;;;;;;8.63;2.58;;;;;;;;;;5038056;28;20656;-69
2024/02/11 12:24:05;;;;;;;9.93;3.25;;;;;;;;;;5059807;28;20107;-67
2024/02/11 12:26:32;;;;;;;11.00;3.30;;;;;;;;;;5056851;28;20016;-66
2024/02/11 12:28:58;;;;;;;7.03;2.00;;;;;;;;;;5043504;28;20036;-67
2024/02/11 12:31:26;;;;;;;9.10;2.10;;;;;;;;;;5038208;28;20806;-68
2024/02/11 12:33:53;;;;;;;8.52;2.55;;;;;;;;;;5051554;28;20559;-67
2024/02/11 12:36:25;;;;;;;8.63;2.08;;;;;;;;;;5060323;28;20024;-67
2024/02/11 12:38:52;;;;;;;9.40;2.40;;;;;;;;;;5059774;28;20236;-70
2024/02/11 12:41:19;;;;;;;7.25;2.13;;;;;;;;;;5044611;28;20054;-66
2024/02/11 12:43:45;;;;;;;7.80;2.67;;;;;;;;;;5061202;28;20100;-66
2024/02/11 12:46:12;;;;;;;9.95;2.03;;;;;;;;;;5057056;28;20453;-66
2024/02/11 12:48:39;;;;;;;7.55;2.65;;;;;;;;;;5057925;28;20647;-68
2024/02/11 12:51:06;;;;;;;7.97;1.73;;;;;;;;;;5049592;28;20028;-67
2024/02/11 12:53:34;;;;;;;8.65;1.75;;;;;;;;;;5058397;28;20024;-66
2024/02/11 12:56:05;;;;;;;16.92;11.23;;;;;;;;;;5062647;28;20160;-67
2024/02/11 12:58:31;;;;;;;9.73;4.10;;;;;;;;;;5056553;28;20027;-67
2024/02/11 13:00:58;;;;;;;11.85;4.57;;;;;;;;;;5062502;28;20078;-66
2024/02/11 13:03:27;;;;;;;9.93;4.25;;;;;;;;;;5062276;28;20625;-69
2024/02/11 13:05:54;;;;;;;8.18;2.10;;;;;;;;;;5043692;28;20024;-68
2024/02/11 13:08:20;;;;;;;8.50;2.67;;;;;;;;;;5065748;28;20040;-67
2024/02/11 13:10:50;;;;;;;8.30;2.70;;;;;;;;;;5045026;28;20028;-66
2024/02/11 13:13:16;;;;;;;10.52;3.88;;;;;;;;;;5065176;28;20035;-67
2024/02/11 13:15:44;;;;;;;10.35;5.45;;;;;;;;;;5046065;28;20040;-66
2024/02/11 13:18:13;;;;;;;9.90;3.53;;;;;;;;;;5066476;28;20135;-70
2024/02/11 13:20:40;;;;;;;10.55;3.60;;;;;;;;;;5064361;28;20379;-66
2024/02/11 13:23:06;;;;;;;10.52;4.65;;;;;;;;;;5042078;28;20032;-68
2024/02/11 13:25:32;;;;;;;13.25;6.47;;;;;;;;;;5043263;28;20032;-67
2024/02/11 13:28:01;;;;;;;15.18;10.38;;;;;;;;;;5065217;28;20036;-68
2024/02/11 13:30:27;;;;;;;11.88;6.07;;;;;;;;;;5044690;28;20028;-68
2024/02/11 13:32:54;;;;;;;10.23;3.28;;;;;;;;;;5064003;28;20035;-68
2024/02/11 13:38:25;;;;;;;9.93;2.00;;;;;;;;;;5048759;22;20563;-80
2024/02/11 13:40:52;;;;;;;9.88;4.32;;;;;;;;;;5014001;28;20481;-79
2024/02/11 13:43:19;;;;;;;8.52;2.47;;;;;;;;;;5016380;28;20405;-80
2024/02/11 13:45:45;;;;;;;9.10;3.30;;;;;;;;;;5009946;28;20032;-80
2024/02/11 13:48:12;;;;;;;8.85;3.20;;;;;;;;;;5024676;28;20154;-78
2024/02/11 13:50:39;;;;;;;7.38;2.05;;;;;;;;;;5021854;28;20293;-81
2024/02/11 13:53:06;;;;;;;8.65;2.33;;;;;;;;;;5011975;28;20022;-79
2024/02/11 13:55:32;;;;;;;8.32;2.60;;;;;;;;;;5019422;28;20125;-81
2024/02/11 13:58:00;;;;;;;9.30;3.47;;;;;;;;;;5010879;28;20836;-82
2024/02/11 14:00:26;;;;;;;10.68;3.60;;;;;;;;;;5022831;28;20032;-78
2024/02/11 14:02:53;;;;;;;9.95;3.83;;;;;;;;;;5026422;28;20131;-80
2024/02/11 14:05:22;;;;;;;7.63;2.53;;;;;;;;;;5011525;28;20160;-80
2024/02/11 14:07:50;;;;;;;11.15;3.97;;;;;;;;;;5011321;28;20030;-80
2024/02/11 14:10:17;;;;;;;9.27;2.70;;;;;;;;;;5023799;28;20049;-81
2024/02/11 14:12:44;;;;;;;14.30;6.30;;;;;;;;;;5024786;28;20146;-80
2024/02/11 14:15:14;;;;;;;12.75;7.05;;;;;;;;;;5028172;28;20068;-81
2024/02/11 14:17:46;;;;;;;8.93;2.67;;;;;;;;;;5003834;28;20440;-79
2024/02/11 14:20:17;;;;;;;8.55;2.13;;;;;;;;;;5028078;28;20506;-79
2024/02/11 14:22:43;;;;;;;10.18;3.95;;;;;;;;;;5010075;28;20024;-79
2024/02/11 14:25:14;;;;;;;7.53;2.40;;;;;;;;;;5011705;28;20029;-80
2024/02/11 14:27:47;;;;;;;8.75;2.92;;;;;;;;;;5011319;28;20037;-79
2024/02/11 14:30:15;;;;;;;11.10;4.32;;;;;;;;;;5026287;28;20029;-79
2024/02/11 14:32:41;;;;;;;7.88;2.92;;;;;;;;;;5027735;28;20065;-80
2024/02/11 14:35:08;;;;;;;6.80;2.10;;;;;;;;;;5028733;28;20029;-81
2024/02/11 14:37:43;;;;;;;8.73;2.35;;;;;;;;;;5014657;28;20112;-80
2024/02/11 14:40:21;;;;;;;8.50;3.05;;;;;;;;;;5030353;28;20067;-80
2024/02/11 14:42:47;;;;;;;9.23;3.10;;;;;;;;;;5021554;28;20049;-79
2024/02/11 14:45:14;;;;;;;7.15;1.88;;;;;;;;;;5007583;28;20033;-80
2024/02/11 14:47:42;;;;;;;7.97;2.38;;;;;;;;;;5029414;28;20037;-79
2024/02/11 14:50:08;;;;;;;7.05;2.20;;;;;;;;;;5028830;28;20033;-78
2024/02/11 14:52:36;;;;;;;9.95;3.25;;;;;;;;;;5008900;28;20106;-78
2024/02/11 14:55:02;;;;;;;8.50;2.80;;;;;;;;;;5011280;28;20391;-80
2024/02/11 14:57:28;;;;;;;8.15;2.60;;;;;;;;;;5008970;28;20697;-79
2024/02/11 14:59:55;;;;;;;8.50;2.83;;;;;;;;;;5032320;28;20028;-81